Rechercher aéroport 
image banner adimage banner adimage banner ad
image banner ad

CL82 - Los Robles Rgnl Medical Center

Situé à Thousand Oaks, United States

ICAO - CL82, IATA -

Données fournies par Airmate  

Information générale

Coordonnées: N34°12'25" W118°52'59"
Élévation : 760 feet MSL.
Variation magnétique : 14° East
Voir autres Aéroports à California

Données opérationnelles

Special qualification required
Heure actuelle UTC:
Heure actuelle locale:
Météo à : KCMA - Camarillo ( 19 km )
METAR: KCMA 210155Z 20004KT 10SM CLR 22/16 A2991 RMK AO2 SLP135 T02170156
TAF: KCMA 202334Z 2100/2124 23008KT P6SM SKC FM210300 VRB03KT P6SM SKC FM211000 07006KT 5SM HZ SKC FM211700 16010KT P6SM SKC FM212000 24008KT P6SM SKC
Voir NOTAMs / SUP AIP / TFR affectant cet aéroport [VIEW]
Fréquences de communication: [VIEW]

Pistes:

Coordonnées de l'aéroport

Adresse: Thousand Oaks United States

Vue satellite de CL82